Detalii statie SCHWAB AGRO ARDUD [00001CF5]

Toti senzorii

Date Temperatura solului [C]Precipitatii [mm]Voltaj baterie [mV]Leaf Wetness [Min]HC Air temperature [C]HC Relative humidity [%]Punctul de roua [C]
medieminmaxsumaultimatimpmedieminmaxmediemediemin
2020-01-25 16:00:00 0 6502 2.6 2.51 2.74 100 2.5 2.5
2020-01-25 17:00:00 0 6494 1.68 0.67 2.55 100 1.6 0.6
2020-01-25 18:00:00 0 6474 -0.75 -1.92 0.53 99.18 -0.7 -1.8
2020-01-25 19:00:00 0 6474 -2.16 -2.35 -2.08 100 -2 -2.2
2020-01-25 20:00:00 0 6464 -2.14 -2.25 -2.08 77.35 0
2020-01-25 21:00:00 0 6464 -2.1 -2.19 -2.04 0 0 0
2020-01-25 22:00:00 0 6474 -2.08 -2.13 -2.06 0 0 0
2020-01-25 23:00:00 0 6454 -1.91 -1.99 -1.86 0 0 0
2020-01-26 00:00:00 0 6454 -1.84 -1.91 -1.79 34.32 0
2020-01-26 01:00:00 0 6454 -1.65 -1.76 -1.59 91.78 -2.7 -3.6
2020-01-26 02:00:00 0 6454 -1.51 -1.58 -1.43 96.17 -1.9 -4.6
2020-01-26 03:00:00 0 6464 -1.49 -1.8 -1.39 99.84 -1.3 -1.7
2020-01-26 04:00:00 0 6464 -1.69 -1.95 -1.48 100 -1.5 -1.8
2020-01-26 05:00:00 0 6454 -1.7 -1.78 -1.63 100 -1.5 -1.6
2020-01-26 06:00:00 0 6454 -1.91 -2 -1.8 100 -1.7 -1.9
2020-01-26 07:00:00 0 6464 -1.84 -1.94 -1.77 100 -1.7 -1.8
2020-01-26 08:00:00 0 6464 -2.05 -2.48 -1.78 100 -1.9 -2.3
2020-01-26 09:00:00 0 6454 -2.31 -2.43 -2.23 100 -2.1 -2.3
2020-01-26 10:00:00 0 6464 -2.3 -2.48 -2.22 100 -2.1 -2.3
2020-01-26 11:00:00 0 6464 -1.83 -2.14 -1.55 100 -1.6 -2
2020-01-26 12:00:00 0 6464 -1.2 -1.43 -1.03 100 -1 -1.3
2020-01-26 13:00:00 0 6464 -0.85 -0.99 -0.7 100 -0.7 -0.8
2020-01-26 14:00:00 0 6454 -0.66 -0.83 -0.5 100 -0.5 -0.7
2020-01-26 15:00:00 0 6454 -0.42 -0.53 -0.22 100 -0.2 -0.4
2020-01-26 16:00:00 0 6454 -0.27 -0.35 -0.19 100 -0.1 -0.2
2020-01-26 17:00:00 0 6454 -0.22 -0.27 -0.16 100 0 -0.1
2020-01-26 18:00:00 0 6454 -0.26 -0.3 -0.24 100 -0.1 -0.2
2020-01-26 19:00:00 0 6454 -0.16 -0.22 -0.09 100 0 -0.1
2020-01-26 20:00:00 0 6454 0 -0.1 0.11 100 0 0
2020-01-26 21:00:00 0 6454 0.09 0.04 0.2 100 0 0
2020-01-26 22:00:00 0 6454 0.25 0.21 0.3 100 0.2 0.2
2020-01-26 23:00:00 0 6454 0.28 0.25 0.33 100 0.2 0.2
2020-01-27 00:00:00 0 6464 0.27 0.22 0.31 100 0.2 0.2
2020-01-27 01:00:00 0 6454 0.16 0.04 0.26 100 0.1 0
2020-01-27 02:00:00 0 6454 0.13 -0.29 0.29 100 0.1 -0.1
2020-01-27 03:00:00 0 6464 0.28 0.26 0.31 100 0.2 0.2
2020-01-27 04:00:00 0 6454 0.29 0.27 0.32 100 0.2 0.2
2020-01-27 05:00:00 0 6454 0.2 0.04 0.28 100 0.1 0
2020-01-27 06:00:00 0 6454 0.02 -0.29 0.2 100 0 -0.1
2020-01-27 07:00:00 0 6454 -0.04 -0.21 0.06 100 0 -0.1
2020-01-27 08:00:00 0 6454 0.06 -0.05 0.13 100 0 0
2020-01-27 09:00:00 0 6454 0.38 0.11 0.74 100 0.3 0.1
2020-01-27 10:00:00 0 6464 1.53 0.85 2.59 100 1.4 0.8
2020-01-27 11:00:00 0 6464 3.94 2.77 4.77 100 3.8 2.7
2020-01-27 12:00:00 0 6474 4.59 4.01 5.23 100 4.5 4
2020-01-27 13:00:00 0 6484 5.34 5.2 5.51 100 5.3 5.2
2020-01-27 14:00:00 0 6484 5.48 5.41 5.57 100 5.4 5.4
2020-01-27 15:00:00 0 6474 5.7 5.56 5.93 100 5.6 5.5